Terminal Aerodrome Forecast
Issued by NWS

Home | Current Version | Previous Version | Text Only | Print | Product List | Glossary On
Versions: 1 2 3 4 5 6 7 8 9 10 11 12 13
000
FTUS45 KGJT 251120
TAFCNY
TAF
KCNY 251120Z 2512/2612 19006KT P6SM FEW250
     FM251600 22007KT P6SM FEW250
     FM260200 23006KT P6SM SCT250
     FM260500 31004KT P6SM SCT250
     FM260800 06004KT P6SM SCT250=

USA.gov is the U.S. government's official web portal to all federal, state and local government web resources and services.